This is the latest recevied weather packets stored in our database for station/object IZ1DME-3. If no packets are shown the sender has not sent any weather packets the latest 10 day(s).
| Time | Temp. | Humidity | Pressure | Rain* | Wind** | Luminosity | Snow |
|---|---|---|---|---|---|---|---|
| 1777041277 | 25° C | 23% | 1015.4 hPa | - | - | - | - |
| 1777039779 | 24.44° C | 23% | 1015.8 hPa | - | - | - | - |
| 1777038277 | 24.44° C | 22% | 1016 hPa | - | - | - | - |
| 1777036778 | 24.44° C | 24% | 1016.3 hPa | - | - | - | - |
| 1777035278 | 23.89° C | 24% | 1016.7 hPa | - | - | - | - |
| 1777033778 | 23.33° C | 27% | 1017 hPa | - | - | - | - |
| 1777032278 | 22.22° C | 27% | 1017.4 hPa | - | - | - | - |
| 1777030777 | 22.22° C | 28% | 1017.7 hPa | - | - | - | - |
| 1777029278 | 21.11° C | 30% | 1018 hPa | - | - | - | - |
| 1777027778 | 20° C | 33% | 1018.7 hPa | - | - | - | - |
| 1777026278 | 18.89° C | 34% | 1019 hPa | - | - | - | - |
| 1777024778 | 17.78° C | 37% | 1019.4 hPa | - | - | - | - |
| 1777023278 | 17.22° C | 38% | 1019.6 hPa | - | - | - | - |
| 1777021778 | 16.67° C | 39% | 1020.1 hPa | - | - | - | - |
| 1777020278 | 15.56° C | 38% | 1020.3 hPa | - | - | - | - |
| 1777018778 | 15° C | 40% | 1020.5 hPa | - | - | - | - |
| 1777017278 | 14.44° C | 39% | 1020.6 hPa | - | - | - | - |
| 1777015778 | 13.89° C | 38% | 1020.7 hPa | - | - | - | - |
| 1777014278 | 13.33° C | 37% | 1020.9 hPa | - | - | - | - |
| 1777012778 | 12.78° C | 38% | 1021 hPa | - | - | - | - |
| 1777011278 | 11.67° C | 39% | 1021 hPa | - | - | - | - |
| 1777009778 | 11.11° C | 34% | 1021.1 hPa | - | - | - | - |
| 1777008278 | 11.67° C | 31% | 1020.8 hPa | - | - | - | - |
| 1777006778 | 11.67° C | 30% | 1020.7 hPa | - | - | - | - |
| 1777005278 | 11.11° C | 30% | 1020.7 hPa | - | - | - | - |
* Rain since midnight (hover to see other rain measurements)
** Current wind speed in m/s (hover to see current wind gust speed)